sensor_id;sensor_type;location;lat;lon;timestamp;P1;durP1;ratioP1;P2;durP2;ratioP2
13816;SDS011;6979;52.116;5.286;2023-04-06T00:00:52;9.97;;;8.53;;
13816;SDS011;6979;52.116;5.286;2023-04-06T00:03:19;10.30;;;9.30;;
13816;SDS011;6979;52.116;5.286;2023-04-06T00:05:50;10.43;;;9.37;;
13816;SDS011;6979;52.116;5.286;2023-04-06T00:08:16;11.53;;;9.30;;
13816;SDS011;6979;52.116;5.286;2023-04-06T00:10:45;12.20;;;10.33;;
13816;SDS011;6979;52.116;5.286;2023-04-06T00:13:12;9.10;;;8.20;;
13816;SDS011;6979;52.116;5.286;2023-04-06T00:15:39;10.13;;;9.10;;
13816;SDS011;6979;52.116;5.286;2023-04-06T00:18:06;10.33;;;9.23;;
13816;SDS011;6979;52.116;5.286;2023-04-06T00:20:33;9.93;;;8.83;;
13816;SDS011;6979;52.116;5.286;2023-04-06T00:23:02;9.60;;;8.70;;
13816;SDS011;6979;52.116;5.286;2023-04-06T00:25:29;9.37;;;8.47;;
13816;SDS011;6979;52.116;5.286;2023-04-06T00:27:55;9.63;;;8.73;;
13816;SDS011;6979;52.116;5.286;2023-04-06T00:30:22;10.20;;;8.87;;
13816;SDS011;6979;52.116;5.286;2023-04-06T00:32:52;9.33;;;8.43;;
13816;SDS011;6979;52.116;5.286;2023-04-06T00:35:22;9.23;;;8.37;;
13816;SDS011;6979;52.116;5.286;2023-04-06T00:37:48;9.50;;;8.50;;
13816;SDS011;6979;52.116;5.286;2023-04-06T00:40:17;9.47;;;8.60;;
13816;SDS011;6979;52.116;5.286;2023-04-06T00:42:44;9.47;;;8.47;;
13816;SDS011;6979;52.116;5.286;2023-04-06T00:45:11;9.60;;;8.70;;
13816;SDS011;6979;52.116;5.286;2023-04-06T00:47:38;9.90;;;8.90;;
13816;SDS011;6979;52.116;5.286;2023-04-06T00:50:05;9.10;;;8.23;;
13816;SDS011;6979;52.116;5.286;2023-04-06T00:52:33;8.60;;;7.80;;
13816;SDS011;6979;52.116;5.286;2023-04-06T00:55:03;9.67;;;8.40;;
13816;SDS011;6979;52.116;5.286;2023-04-06T00:57:34;9.30;;;8.43;;
13816;SDS011;6979;52.116;5.286;2023-04-06T01:00:01;8.97;;;8.10;;
13816;SDS011;6979;52.116;5.286;2023-04-06T01:02:29;8.63;;;7.70;;
13816;SDS011;6979;52.116;5.286;2023-04-06T01:04:57;10.17;;;7.57;;
13816;SDS011;6979;52.116;5.286;2023-04-06T01:07:35;8.47;;;7.63;;
13816;SDS011;6979;52.116;5.286;2023-04-06T01:10:22;8.77;;;7.87;;
13816;SDS011;6979;52.116;5.286;2023-04-06T01:12:55;9.07;;;8.23;;
13816;SDS011;6979;52.116;5.286;2023-04-06T01:15:40;7.97;;;7.27;;
13816;SDS011;6979;52.116;5.286;2023-04-06T01:18:13;8.17;;;7.37;;
13816;SDS011;6979;52.116;5.286;2023-04-06T01:20:47;8.53;;;7.70;;
13816;SDS011;6979;52.116;5.286;2023-04-06T01:23:17;7.90;;;7.10;;
13816;SDS011;6979;52.116;5.286;2023-04-06T01:25:47;7.80;;;7.10;;
13816;SDS011;6979;52.116;5.286;2023-04-06T01:28:13;9.03;;;8.10;;
13816;SDS011;6979;52.116;5.286;2023-04-06T01:30:51;8.07;;;7.27;;
13816;SDS011;6979;52.116;5.286;2023-04-06T01:33:37;8.37;;;7.57;;
13816;SDS011;6979;52.116;5.286;2023-04-06T01:36:07;7.47;;;6.67;;
13816;SDS011;6979;52.116;5.286;2023-04-06T01:38:36;8.10;;;7.33;;
13816;SDS011;6979;52.116;5.286;2023-04-06T01:41:03;8.10;;;7.30;;
13816;SDS011;6979;52.116;5.286;2023-04-06T01:43:41;8.33;;;7.53;;
13816;SDS011;6979;52.116;5.286;2023-04-06T01:46:09;7.17;;;6.47;;
13816;SDS011;6979;52.116;5.286;2023-04-06T01:48:40;9.43;;;7.23;;
13816;SDS011;6979;52.116;5.286;2023-04-06T01:51:16;6.97;;;6.07;;
13816;SDS011;6979;52.116;5.286;2023-04-06T01:53:55;7.37;;;6.60;;
13816;SDS011;6979;52.116;5.286;2023-04-06T01:56:35;7.40;;;6.70;;
13816;SDS011;6979;52.116;5.286;2023-04-06T01:59:13;7.13;;;6.00;;
13816;SDS011;6979;52.116;5.286;2023-04-06T02:01:42;8.10;;;6.93;;
13816;SDS011;6979;52.116;5.286;2023-04-06T02:04:09;6.10;;;5.60;;
13816;SDS011;6979;52.116;5.286;2023-04-06T02:06:36;7.13;;;6.23;;
13816;SDS011;6979;52.116;5.286;2023-04-06T02:09:07;7.17;;;5.70;;
13816;SDS011;6979;52.116;5.286;2023-04-06T02:11:34;7.37;;;6.13;;
13816;SDS011;6979;52.116;5.286;2023-04-06T02:14:01;6.73;;;6.10;;
13816;SDS011;6979;52.116;5.286;2023-04-06T02:16:31;9.30;;;6.90;;
13816;SDS011;6979;52.116;5.286;2023-04-06T02:18:58;8.10;;;6.50;;
13816;SDS011;6979;52.116;5.286;2023-04-06T02:21:26;8.77;;;5.63;;
13816;SDS011;6979;52.116;5.286;2023-04-06T02:23:53;11.20;;;6.53;;
13816;SDS011;6979;52.116;5.286;2023-04-06T02:26:22;6.80;;;6.17;;
13816;SDS011;6979;52.116;5.286;2023-04-06T02:28:50;7.43;;;6.70;;
13816;SDS011;6979;52.116;5.286;2023-04-06T02:31:18;6.93;;;6.10;;
13816;SDS011;6979;52.116;5.286;2023-04-06T02:33:45;7.20;;;6.50;;
13816;SDS011;6979;52.116;5.286;2023-04-06T02:36:13;8.10;;;7.30;;
13816;SDS011;6979;52.116;5.286;2023-04-06T02:38:44;7.37;;;6.67;;
13816;SDS011;6979;52.116;5.286;2023-04-06T02:41:11;6.63;;;6.03;;
13816;SDS011;6979;52.116;5.286;2023-04-06T02:43:39;7.20;;;6.53;;
13816;SDS011;6979;52.116;5.286;2023-04-06T02:46:16;7.63;;;6.43;;
13816;SDS011;6979;52.116;5.286;2023-04-06T02:48:43;7.13;;;6.47;;
13816;SDS011;6979;52.116;5.286;2023-04-06T02:51:10;7.13;;;6.53;;
13816;SDS011;6979;52.116;5.286;2023-04-06T02:53:40;8.07;;;7.03;;
13816;SDS011;6979;52.116;5.286;2023-04-06T02:56:07;7.80;;;7.00;;
13816;SDS011;6979;52.116;5.286;2023-04-06T02:58:43;10.47;;;7.57;;
13816;SDS011;6979;52.116;5.286;2023-04-06T03:01:10;9.07;;;8.17;;
13816;SDS011;6979;52.116;5.286;2023-04-06T03:03:38;8.43;;;7.53;;
13816;SDS011;6979;52.116;5.286;2023-04-06T03:06:11;8.97;;;7.37;;
13816;SDS011;6979;52.116;5.286;2023-04-06T03:08:38;9.40;;;8.50;;
13816;SDS011;6979;52.116;5.286;2023-04-06T03:11:05;10.63;;;9.53;;
13816;SDS011;6979;52.116;5.286;2023-04-06T03:13:38;9.67;;;8.33;;
13816;SDS011;6979;52.116;5.286;2023-04-06T03:16:07;12.07;;;9.63;;
13816;SDS011;6979;52.116;5.286;2023-04-06T03:18:34;10.50;;;8.67;;
13816;SDS011;6979;52.116;5.286;2023-04-06T03:21:01;11.20;;;9.23;;
13816;SDS011;6979;52.116;5.286;2023-04-06T03:23:40;10.37;;;8.47;;
13816;SDS011;6979;52.116;5.286;2023-04-06T03:26:07;11.27;;;8.97;;
13816;SDS011;6979;52.116;5.286;2023-04-06T03:28:34;10.27;;;8.90;;
13816;SDS011;6979;52.116;5.286;2023-04-06T03:31:03;9.83;;;8.77;;
13816;SDS011;6979;52.116;5.286;2023-04-06T03:33:57;11.03;;;8.20;;
13816;SDS011;6979;52.116;5.286;2023-04-06T03:36:29;11.47;;;8.47;;
13816;SDS011;6979;52.116;5.286;2023-04-06T03:38:57;9.63;;;8.73;;
13816;SDS011;6979;52.116;5.286;2023-04-06T03:41:23;10.73;;;9.33;;
13816;SDS011;6979;52.116;5.286;2023-04-06T03:44:03;9.43;;;8.53;;
13816;SDS011;6979;52.116;5.286;2023-04-06T03:46:31;10.10;;;9.10;;
13816;SDS011;6979;52.116;5.286;2023-04-06T03:49:00;10.93;;;8.33;;
13816;SDS011;6979;52.116;5.286;2023-04-06T03:51:27;11.03;;;9.20;;
13816;SDS011;6979;52.116;5.286;2023-04-06T03:53:54;10.20;;;9.10;;
13816;SDS011;6979;52.116;5.286;2023-04-06T03:56:21;9.60;;;8.70;;
13816;SDS011;6979;52.116;5.286;2023-04-06T03:58:53;10.20;;;8.77;;
13816;SDS011;6979;52.116;5.286;2023-04-06T04:01:19;10.87;;;8.73;;
13816;SDS011;6979;52.116;5.286;2023-04-06T04:03:46;10.27;;;9.17;;
13816;SDS011;6979;52.116;5.286;2023-04-06T04:06:19;9.83;;;8.83;;
13816;SDS011;6979;52.116;5.286;2023-04-06T04:08:46;12.20;;;10.67;;
13816;SDS011;6979;52.116;5.286;2023-04-06T04:11:12;10.47;;;9.30;;
13816;SDS011;6979;52.116;5.286;2023-04-06T04:13:42;10.50;;;9.30;;
13816;SDS011;6979;52.116;5.286;2023-04-06T04:16:10;10.93;;;9.60;;
13816;SDS011;6979;52.116;5.286;2023-04-06T04:18:37;10.57;;;9.30;;
13816;SDS011;6979;52.116;5.286;2023-04-06T04:21:05;11.17;;;10.07;;
13816;SDS011;6979;52.116;5.286;2023-04-06T04:23:34;11.33;;;9.43;;
13816;SDS011;6979;52.116;5.286;2023-04-06T04:26:01;11.40;;;10.20;;
13816;SDS011;6979;52.116;5.286;2023-04-06T04:28:28;10.57;;;9.53;;
13816;SDS011;6979;52.116;5.286;2023-04-06T04:30:55;10.30;;;8.90;;
13816;SDS011;6979;52.116;5.286;2023-04-06T04:33:22;11.03;;;9.47;;
13816;SDS011;6979;52.116;5.286;2023-04-06T04:35:52;11.90;;;10.70;;
13816;SDS011;6979;52.116;5.286;2023-04-06T04:38:21;10.87;;;9.77;;
13816;SDS011;6979;52.116;5.286;2023-04-06T04:40:53;11.20;;;10.00;;
13816;SDS011;6979;52.116;5.286;2023-04-06T04:43:21;13.67;;;11.67;;
13816;SDS011;6979;52.116;5.286;2023-04-06T04:45:48;11.47;;;10.37;;
13816;SDS011;6979;52.116;5.286;2023-04-06T04:48:33;11.13;;;9.90;;
13816;SDS011;6979;52.116;5.286;2023-04-06T04:51:03;12.93;;;10.80;;
13816;SDS011;6979;52.116;5.286;2023-04-06T04:53:44;10.20;;;9.20;;
13816;SDS011;6979;52.116;5.286;2023-04-06T04:56:25;11.37;;;10.07;;
13816;SDS011;6979;52.116;5.286;2023-04-06T04:59:00;11.67;;;10.47;;
13816;SDS011;6979;52.116;5.286;2023-04-06T05:01:29;11.63;;;10.10;;
13816;SDS011;6979;52.116;5.286;2023-04-06T05:04:00;12.47;;;11.17;;
13816;SDS011;6979;52.116;5.286;2023-04-06T05:06:26;11.43;;;10.27;;
13816;SDS011;6979;52.116;5.286;2023-04-06T05:08:53;12.40;;;9.53;;
13816;SDS011;6979;52.116;5.286;2023-04-06T05:11:22;14.67;;;10.87;;
13816;SDS011;6979;52.116;5.286;2023-04-06T05:13:57;11.27;;;9.57;;
13816;SDS011;6979;52.116;5.286;2023-04-06T05:16:25;12.07;;;10.80;;
13816;SDS011;6979;52.116;5.286;2023-04-06T05:18:52;13.37;;;11.63;;
13816;SDS011;6979;52.116;5.286;2023-04-06T05:21:21;10.97;;;9.87;;
13816;SDS011;6979;52.116;5.286;2023-04-06T05:23:54;11.90;;;10.70;;
13816;SDS011;6979;52.116;5.286;2023-04-06T05:26:21;11.37;;;10.17;;
13816;SDS011;6979;52.116;5.286;2023-04-06T05:28:53;12.37;;;11.07;;
13816;SDS011;6979;52.116;5.286;2023-04-06T05:31:23;13.53;;;11.03;;
13816;SDS011;6979;52.116;5.286;2023-04-06T05:33:50;12.27;;;11.07;;
13816;SDS011;6979;52.116;5.286;2023-04-06T05:36:31;12.90;;;11.60;;
13816;SDS011;6979;52.116;5.286;2023-04-06T05:39:02;11.93;;;10.67;;
13816;SDS011;6979;52.116;5.286;2023-04-06T05:41:34;12.10;;;10.90;;
13816;SDS011;6979;52.116;5.286;2023-04-06T05:44:01;11.63;;;10.43;;
13816;SDS011;6979;52.116;5.286;2023-04-06T05:46:32;14.43;;;12.20;;
13816;SDS011;6979;52.116;5.286;2023-04-06T05:48:59;13.40;;;11.67;;
13816;SDS011;6979;52.116;5.286;2023-04-06T05:51:30;14.23;;;12.47;;
13816;SDS011;6979;52.116;5.286;2023-04-06T05:53:57;14.73;;;12.77;;
13816;SDS011;6979;52.116;5.286;2023-04-06T05:56:24;13.53;;;11.87;;
13816;SDS011;6979;52.116;5.286;2023-04-06T05:58:51;12.43;;;11.23;;
13816;SDS011;6979;52.116;5.286;2023-04-06T06:01:25;13.53;;;11.77;;
13816;SDS011;6979;52.116;5.286;2023-04-06T06:03:55;13.03;;;11.73;;
13816;SDS011;6979;52.116;5.286;2023-04-06T06:06:27;13.97;;;12.47;;
13816;SDS011;6979;52.116;5.286;2023-04-06T06:09:06;14.00;;;12.43;;
13816;SDS011;6979;52.116;5.286;2023-04-06T06:11:38;13.63;;;11.70;;
13816;SDS011;6979;52.116;5.286;2023-04-06T06:14:07;15.40;;;12.37;;
13816;SDS011;6979;52.116;5.286;2023-04-06T06:16:37;14.07;;;12.43;;
13816;SDS011;6979;52.116;5.286;2023-04-06T06:19:07;14.17;;;12.77;;
13816;SDS011;6979;52.116;5.286;2023-04-06T06:21:34;14.13;;;12.33;;
13816;SDS011;6979;52.116;5.286;2023-04-06T06:24:03;14.73;;;11.90;;
13816;SDS011;6979;52.116;5.286;2023-04-06T06:26:30;13.67;;;12.27;;
13816;SDS011;6979;52.116;5.286;2023-04-06T06:28:58;15.10;;;13.47;;
13816;SDS011;6979;52.116;5.286;2023-04-06T06:31:26;17.73;;;13.53;;
13816;SDS011;6979;52.116;5.286;2023-04-06T06:33:53;14.57;;;12.70;;
13816;SDS011;6979;52.116;5.286;2023-04-06T06:36:21;13.90;;;12.10;;
13816;SDS011;6979;52.116;5.286;2023-04-06T06:38:49;14.47;;;13.03;;
13816;SDS011;6979;52.116;5.286;2023-04-06T06:41:19;16.87;;;14.67;;
13816;SDS011;6979;52.116;5.286;2023-04-06T06:43:46;17.17;;;14.20;;
13816;SDS011;6979;52.116;5.286;2023-04-06T06:46:13;15.87;;;13.60;;
13816;SDS011;6979;52.116;5.286;2023-04-06T06:48:40;15.50;;;13.80;;
13816;SDS011;6979;52.116;5.286;2023-04-06T06:51:07;14.47;;;12.90;;
13816;SDS011;6979;52.116;5.286;2023-04-06T06:53:36;16.07;;;14.37;;
13816;SDS011;6979;52.116;5.286;2023-04-06T06:56:02;16.90;;;14.67;;
13816;SDS011;6979;52.116;5.286;2023-04-06T06:58:30;15.83;;;13.47;;
13816;SDS011;6979;52.116;5.286;2023-04-06T07:00:58;15.93;;;14.33;;
13816;SDS011;6979;52.116;5.286;2023-04-06T07:03:26;15.57;;;14.00;;
13816;SDS011;6979;52.116;5.286;2023-04-06T07:05:53;16.10;;;14.60;;
13816;SDS011;6979;52.116;5.286;2023-04-06T07:08:23;15.77;;;14.13;;
13816;SDS011;6979;52.116;5.286;2023-04-06T07:10:52;14.97;;;13.40;;
13816;SDS011;6979;52.116;5.286;2023-04-06T07:13:21;14.67;;;13.17;;
13816;SDS011;6979;52.116;5.286;2023-04-06T07:15:50;15.70;;;14.07;;
13816;SDS011;6979;52.116;5.286;2023-04-06T07:18:17;16.13;;;14.30;;
13816;SDS011;6979;52.116;5.286;2023-04-06T07:20:45;15.63;;;14.17;;
13816;SDS011;6979;52.116;5.286;2023-04-06T07:23:13;15.90;;;13.93;;
13816;SDS011;6979;52.116;5.286;2023-04-06T07:25:40;18.13;;;15.13;;
13816;SDS011;6979;52.116;5.286;2023-04-06T07:28:10;17.30;;;15.47;;
13816;SDS011;6979;52.116;5.286;2023-04-06T07:30:37;17.40;;;15.50;;
13816;SDS011;6979;52.116;5.286;2023-04-06T07:33:05;14.80;;;13.30;;
13816;SDS011;6979;52.116;5.286;2023-04-06T07:35:34;15.50;;;14.00;;
13816;SDS011;6979;52.116;5.286;2023-04-06T07:38:02;15.07;;;13.57;;
13816;SDS011;6979;52.116;5.286;2023-04-06T07:40:29;15.63;;;14.13;;
13816;SDS011;6979;52.116;5.286;2023-04-06T07:42:57;20.27;;;15.80;;
13816;SDS011;6979;52.116;5.286;2023-04-06T07:45:25;16.10;;;14.40;;
13816;SDS011;6979;52.116;5.286;2023-04-06T07:47:52;15.97;;;14.37;;
13816;SDS011;6979;52.116;5.286;2023-04-06T07:50:20;15.03;;;13.27;;
13816;SDS011;6979;52.116;5.286;2023-04-06T07:52:47;16.77;;;14.97;;
13816;SDS011;6979;52.116;5.286;2023-04-06T07:55:14;17.67;;;15.87;;
13816;SDS011;6979;52.116;5.286;2023-04-06T07:57:41;16.83;;;15.03;;
13816;SDS011;6979;52.116;5.286;2023-04-06T08:00:08;18.20;;;16.20;;
13816;SDS011;6979;52.116;5.286;2023-04-06T08:02:40;18.63;;;15.90;;
13816;SDS011;6979;52.116;5.286;2023-04-06T08:05:07;16.93;;;15.00;;
13816;SDS011;6979;52.116;5.286;2023-04-06T08:07:38;16.43;;;14.77;;
13816;SDS011;6979;52.116;5.286;2023-04-06T08:10:05;16.57;;;14.90;;
13816;SDS011;6979;52.116;5.286;2023-04-06T08:12:33;17.60;;;15.87;;
13816;SDS011;6979;52.116;5.286;2023-04-06T08:15:00;17.20;;;15.40;;
13816;SDS011;6979;52.116;5.286;2023-04-06T08:17:28;15.93;;;14.23;;
13816;SDS011;6979;52.116;5.286;2023-04-06T08:19:57;20.43;;;15.87;;
13816;SDS011;6979;52.116;5.286;2023-04-06T08:22:25;17.30;;;15.00;;
13816;SDS011;6979;52.116;5.286;2023-04-06T08:24:52;17.33;;;15.63;;
13816;SDS011;6979;52.116;5.286;2023-04-06T08:27:22;18.33;;;16.43;;
13816;SDS011;6979;52.116;5.286;2023-04-06T08:29:49;17.83;;;15.67;;
13816;SDS011;6979;52.116;5.286;2023-04-06T08:32:16;17.70;;;15.90;;
13816;SDS011;6979;52.116;5.286;2023-04-06T08:34:42;20.57;;;17.03;;
13816;SDS011;6979;52.116;5.286;2023-04-06T08:37:11;21.40;;;17.63;;
13816;SDS011;6979;52.116;5.286;2023-04-06T08:39:38;20.00;;;17.33;;
13816;SDS011;6979;52.116;5.286;2023-04-06T08:42:09;18.10;;;16.30;;
13816;SDS011;6979;52.116;5.286;2023-04-06T08:44:39;17.63;;;15.83;;
13816;SDS011;6979;52.116;5.286;2023-04-06T08:47:10;19.63;;;17.53;;
13816;SDS011;6979;52.116;5.286;2023-04-06T08:49:37;20.27;;;18.20;;
13816;SDS011;6979;52.116;5.286;2023-04-06T08:52:05;20.13;;;18.13;;
13816;SDS011;6979;52.116;5.286;2023-04-06T08:54:34;21.00;;;17.47;;
13816;SDS011;6979;52.116;5.286;2023-04-06T08:57:01;19.30;;;17.40;;
13816;SDS011;6979;52.116;5.286;2023-04-06T08:59:31;19.70;;;17.63;;
13816;SDS011;6979;52.116;5.286;2023-04-06T09:01:58;20.40;;;17.53;;
13816;SDS011;6979;52.116;5.286;2023-04-06T09:04:28;20.53;;;18.17;;
13816;SDS011;6979;52.116;5.286;2023-04-06T09:06:55;19.27;;;16.87;;
13816;SDS011;6979;52.116;5.286;2023-04-06T09:09:22;21.13;;;18.43;;
13816;SDS011;6979;52.116;5.286;2023-04-06T09:11:51;22.00;;;16.93;;
13816;SDS011;6979;52.116;5.286;2023-04-06T09:14:32;18.23;;;16.40;;
13816;SDS011;6979;52.116;5.286;2023-04-06T09:17:00;19.93;;;17.83;;
13816;SDS011;6979;52.116;5.286;2023-04-06T09:19:27;18.83;;;16.87;;
13816;SDS011;6979;52.116;5.286;2023-04-06T09:22:00;19.07;;;17.07;;
13816;SDS011;6979;52.116;5.286;2023-04-06T09:24:38;18.93;;;17.03;;
13816;SDS011;6979;52.116;5.286;2023-04-06T09:27:07;18.50;;;16.50;;
13816;SDS011;6979;52.116;5.286;2023-04-06T09:29:34;20.00;;;17.40;;
13816;SDS011;6979;52.116;5.286;2023-04-06T09:32:02;20.67;;;18.50;;
13816;SDS011;6979;52.116;5.286;2023-04-06T09:34:30;21.33;;;18.37;;
13816;SDS011;6979;52.116;5.286;2023-04-06T09:36:58;21.47;;;19.27;;
13816;SDS011;6979;52.116;5.286;2023-04-06T09:39:25;22.27;;;19.97;;
13816;SDS011;6979;52.116;5.286;2023-04-06T09:41:54;19.80;;;17.73;;
13816;SDS011;6979;52.116;5.286;2023-04-06T09:44:23;21.70;;;18.30;;
13816;SDS011;6979;52.116;5.286;2023-04-06T09:46:50;22.00;;;19.13;;
13816;SDS011;6979;52.116;5.286;2023-04-06T09:49:21;22.20;;;19.83;;
13816;SDS011;6979;52.116;5.286;2023-04-06T09:51:52;21.43;;;18.97;;
13816;SDS011;6979;52.116;5.286;2023-04-06T09:54:22;21.80;;;19.50;;
13816;SDS011;6979;52.116;5.286;2023-04-06T09:56:50;26.27;;;21.77;;
13816;SDS011;6979;52.116;5.286;2023-04-06T09:59:24;21.87;;;19.47;;
13816;SDS011;6979;52.116;5.286;2023-04-06T10:01:58;23.40;;;20.73;;
13816;SDS011;6979;52.116;5.286;2023-04-06T10:04:28;23.90;;;19.43;;
13816;SDS011;6979;52.116;5.286;2023-04-06T10:07:02;22.27;;;19.37;;
13816;SDS011;6979;52.116;5.286;2023-04-06T10:09:31;21.63;;;19.43;;
13816;SDS011;6979;52.116;5.286;2023-04-06T10:12:02;20.93;;;18.70;;
13816;SDS011;6979;52.116;5.286;2023-04-06T10:14:32;21.53;;;17.70;;
13816;SDS011;6979;52.116;5.286;2023-04-06T10:17:02;19.53;;;17.57;;
13816;SDS011;6979;52.116;5.286;2023-04-06T10:19:32;18.10;;;16.17;;
13816;SDS011;6979;52.116;5.286;2023-04-06T10:22:07;18.70;;;16.27;;
13816;SDS011;6979;52.116;5.286;2023-04-06T10:24:38;18.70;;;15.93;;
13816;SDS011;6979;52.116;5.286;2023-04-06T10:27:06;15.90;;;13.93;;
13816;SDS011;6979;52.116;5.286;2023-04-06T10:29:47;14.03;;;12.67;;
13816;SDS011;6979;52.116;5.286;2023-04-06T10:32:14;12.50;;;11.27;;
13816;SDS011;6979;52.116;5.286;2023-04-06T10:34:42;12.73;;;11.07;;
13816;SDS011;6979;52.116;5.286;2023-04-06T10:37:13;11.77;;;10.57;;
13816;SDS011;6979;52.116;5.286;2023-04-06T10:39:47;12.77;;;9.73;;
13816;SDS011;6979;52.116;5.286;2023-04-06T10:42:23;10.87;;;9.07;;
13816;SDS011;6979;52.116;5.286;2023-04-06T10:44:52;10.87;;;9.73;;
13816;SDS011;6979;52.116;5.286;2023-04-06T10:47:19;8.13;;;7.37;;
13816;SDS011;6979;52.116;5.286;2023-04-06T10:49:46;6.63;;;6.03;;
13816;SDS011;6979;52.116;5.286;2023-04-06T10:52:13;5.67;;;5.17;;
13816;SDS011;6979;52.116;5.286;2023-04-06T10:54:41;6.30;;;5.50;;
13816;SDS011;6979;52.116;5.286;2023-04-06T10:57:09;5.47;;;4.97;;
13816;SDS011;6979;52.116;5.286;2023-04-06T10:59:36;5.60;;;5.10;;
13816;SDS011;6979;52.116;5.286;2023-04-06T11:02:09;5.73;;;5.23;;
13816;SDS011;6979;52.116;5.286;2023-04-06T11:04:54;4.73;;;4.33;;
13816;SDS011;6979;52.116;5.286;2023-04-06T11:07:24;4.73;;;4.33;;
13816;SDS011;6979;52.116;5.286;2023-04-06T11:09:52;4.97;;;4.40;;
13816;SDS011;6979;52.116;5.286;2023-04-06T11:12:23;5.83;;;5.17;;
13816;SDS011;6979;52.116;5.286;2023-04-06T11:14:54;5.63;;;5.10;;
13816;SDS011;6979;52.116;5.286;2023-04-06T11:17:27;7.20;;;6.00;;
13816;SDS011;6979;52.116;5.286;2023-04-06T11:19:54;6.43;;;5.83;;
13816;SDS011;6979;52.116;5.286;2023-04-06T11:22:22;6.60;;;6.00;;
13816;SDS011;6979;52.116;5.286;2023-04-06T11:24:51;6.63;;;6.03;;
13816;SDS011;6979;52.116;5.286;2023-04-06T11:27:18;7.27;;;6.57;;
13816;SDS011;6979;52.116;5.286;2023-04-06T11:29:47;6.87;;;6.10;;
13816;SDS011;6979;52.116;5.286;2023-04-06T11:32:19;5.80;;;5.20;;
13816;SDS011;6979;52.116;5.286;2023-04-06T11:34:48;5.60;;;5.10;;
13816;SDS011;6979;52.116;5.286;2023-04-06T11:37:15;6.20;;;5.03;;
13816;SDS011;6979;52.116;5.286;2023-04-06T11:39:47;5.57;;;5.17;;
13816;SDS011;6979;52.116;5.286;2023-04-06T11:42:20;6.57;;;5.33;;
13816;SDS011;6979;52.116;5.286;2023-04-06T11:44:49;7.27;;;6.57;;
13816;SDS011;6979;52.116;5.286;2023-04-06T11:47:18;6.97;;;6.37;;
13816;SDS011;6979;52.116;5.286;2023-04-06T11:49:48;7.70;;;6.90;;
13816;SDS011;6979;52.116;5.286;2023-04-06T11:52:16;7.47;;;6.77;;
13816;SDS011;6979;52.116;5.286;2023-04-06T11:54:44;7.80;;;7.10;;
13816;SDS011;6979;52.116;5.286;2023-04-06T11:57:12;7.47;;;6.80;;
13816;SDS011;6979;52.116;5.286;2023-04-06T11:59:38;8.70;;;7.90;;
13816;SDS011;6979;52.116;5.286;2023-04-06T12:02:05;8.67;;;7.70;;
13816;SDS011;6979;52.116;5.286;2023-04-06T12:04:32;8.87;;;8.07;;
13816;SDS011;6979;52.116;5.286;2023-04-06T12:07:01;10.47;;;9.37;;
13816;SDS011;6979;52.116;5.286;2023-04-06T12:09:29;9.47;;;8.67;;
13816;SDS011;6979;52.116;5.286;2023-04-06T12:11:56;10.27;;;9.27;;
13816;SDS011;6979;52.116;5.286;2023-04-06T12:14:23;10.50;;;9.50;;
13816;SDS011;6979;52.116;5.286;2023-04-06T12:16:49;11.27;;;10.17;;
13816;SDS011;6979;52.116;5.286;2023-04-06T12:19:17;10.53;;;9.03;;
13816;SDS011;6979;52.116;5.286;2023-04-06T12:21:44;10.43;;;9.47;;
13816;SDS011;6979;52.116;5.286;2023-04-06T12:24:12;9.87;;;8.97;;
13816;SDS011;6979;52.116;5.286;2023-04-06T12:26:38;10.60;;;9.60;;
13816;SDS011;6979;52.116;5.286;2023-04-06T12:29:06;11.97;;;10.80;;
13816;SDS011;6979;52.116;5.286;2023-04-06T12:31:34;10.87;;;9.77;;
13816;SDS011;6979;52.116;5.286;2023-04-06T12:34:04;12.27;;;11.13;;
13816;SDS011;6979;52.116;5.286;2023-04-06T12:36:31;11.47;;;10.37;;
13816;SDS011;6979;52.116;5.286;2023-04-06T12:38:57;11.73;;;10.53;;
13816;SDS011;6979;52.116;5.286;2023-04-06T12:41:26;12.57;;;11.40;;
13816;SDS011;6979;52.116;5.286;2023-04-06T12:43:53;11.23;;;10.20;;
13816;SDS011;6979;52.116;5.286;2023-04-06T12:46:20;13.70;;;12.30;;
13816;SDS011;6979;52.116;5.286;2023-04-06T12:48:48;12.40;;;11.10;;
13816;SDS011;6979;52.116;5.286;2023-04-06T12:51:15;12.77;;;11.57;;
13816;SDS011;6979;52.116;5.286;2023-04-06T12:53:42;12.27;;;11.07;;
13816;SDS011;6979;52.116;5.286;2023-04-06T12:56:13;12.20;;;11.00;;
13816;SDS011;6979;52.116;5.286;2023-04-06T12:58:43;12.87;;;11.57;;
13816;SDS011;6979;52.116;5.286;2023-04-06T13:01:10;12.37;;;11.17;;
13816;SDS011;6979;52.116;5.286;2023-04-06T13:03:38;11.93;;;10.73;;
13816;SDS011;6979;52.116;5.286;2023-04-06T13:06:05;12.87;;;11.57;;
13816;SDS011;6979;52.116;5.286;2023-04-06T13:08:33;11.50;;;10.40;;
13816;SDS011;6979;52.116;5.286;2023-04-06T13:11:01;12.47;;;11.27;;
13816;SDS011;6979;52.116;5.286;2023-04-06T13:13:28;14.50;;;13.00;;
13816;SDS011;6979;52.116;5.286;2023-04-06T13:15:59;11.40;;;10.43;;
13816;SDS011;6979;52.116;5.286;2023-04-06T13:18:28;14.03;;;12.77;;
13816;SDS011;6979;52.116;5.286;2023-04-06T13:20:55;11.97;;;10.77;;
13816;SDS011;6979;52.116;5.286;2023-04-06T13:23:22;12.13;;;10.93;;
13816;SDS011;6979;52.116;5.286;2023-04-06T13:25:56;11.77;;;10.57;;
13816;SDS011;6979;52.116;5.286;2023-04-06T13:28:24;11.80;;;10.70;;
13816;SDS011;6979;52.116;5.286;2023-04-06T13:30:53;11.47;;;10.17;;
13816;SDS011;6979;52.116;5.286;2023-04-06T13:33:21;11.57;;;10.40;;
13816;SDS011;6979;52.116;5.286;2023-04-06T13:35:48;12.43;;;11.23;;
13816;SDS011;6979;52.116;5.286;2023-04-06T13:38:15;11.03;;;9.73;;
13816;SDS011;6979;52.116;5.286;2023-04-06T13:40:42;12.13;;;10.93;;
13816;SDS011;6979;52.116;5.286;2023-04-06T13:43:10;12.70;;;11.47;;
13816;SDS011;6979;52.116;5.286;2023-04-06T13:45:37;12.97;;;11.77;;
13816;SDS011;6979;52.116;5.286;2023-04-06T13:48:04;12.73;;;11.50;;
13816;SDS011;6979;52.116;5.286;2023-04-06T13:50:34;12.43;;;11.17;;
13816;SDS011;6979;52.116;5.286;2023-04-06T13:53:00;13.77;;;12.47;;
13816;SDS011;6979;52.116;5.286;2023-04-06T13:55:27;12.77;;;11.47;;
13816;SDS011;6979;52.116;5.286;2023-04-06T13:57:56;12.63;;;11.43;;
13816;SDS011;6979;52.116;5.286;2023-04-06T14:00:23;10.73;;;9.73;;
13816;SDS011;6979;52.116;5.286;2023-04-06T14:02:50;11.83;;;10.73;;
13816;SDS011;6979;52.116;5.286;2023-04-06T14:05:24;11.53;;;10.50;;
13816;SDS011;6979;52.116;5.286;2023-04-06T14:07:55;12.07;;;10.97;;
13816;SDS011;6979;52.116;5.286;2023-04-06T14:10:22;13.30;;;11.90;;
13816;SDS011;6979;52.116;5.286;2023-04-06T14:12:52;12.17;;;11.03;;
13816;SDS011;6979;52.116;5.286;2023-04-06T14:15:19;12.40;;;11.10;;
13816;SDS011;6979;52.116;5.286;2023-04-06T14:17:48;12.43;;;11.23;;
13816;SDS011;6979;52.116;5.286;2023-04-06T14:20:37;12.37;;;11.27;;
13816;SDS011;6979;52.116;5.286;2023-04-06T14:23:05;12.27;;;11.10;;
13816;SDS011;6979;52.116;5.286;2023-04-06T14:25:32;13.37;;;12.07;;
13816;SDS011;6979;52.116;5.286;2023-04-06T14:27:59;10.57;;;9.50;;
13816;SDS011;6979;52.116;5.286;2023-04-06T14:30:27;10.57;;;9.30;;
13816;SDS011;6979;52.116;5.286;2023-04-06T14:32:56;11.30;;;10.30;;
13816;SDS011;6979;52.116;5.286;2023-04-06T14:35:24;10.87;;;9.87;;
13816;SDS011;6979;52.116;5.286;2023-04-06T14:37:53;10.80;;;9.70;;
13816;SDS011;6979;52.116;5.286;2023-04-06T14:40:21;12.27;;;11.07;;
13816;SDS011;6979;52.116;5.286;2023-04-06T14:42:48;10.60;;;9.60;;
13816;SDS011;6979;52.116;5.286;2023-04-06T14:45:16;11.10;;;10.10;;
13816;SDS011;6979;52.116;5.286;2023-04-06T14:47:44;11.00;;;9.90;;
13816;SDS011;6979;52.116;5.286;2023-04-06T14:50:11;11.17;;;10.07;;
13816;SDS011;6979;52.116;5.286;2023-04-06T14:52:38;10.50;;;9.60;;
13816;SDS011;6979;52.116;5.286;2023-04-06T14:55:05;9.53;;;8.67;;
13816;SDS011;6979;52.116;5.286;2023-04-06T14:57:33;10.17;;;9.17;;